Skippack, Pennsylvania
Current Conditions -  °F | °C
As of 8:14 AM on Thursday 30 Oct 2014 (Local Time) from KPTW Reporting Station
Haze Haze  
Wind Chill: 39°   Ceiling: Unl
Heat Index: 39°   Visibility: 3mi
Dew Point: 38°   Wind: 0mph
Humidity: 96%   Direction: NA
Pressure: 30.03"   Gusts: NA
Location:  40.22°N, 75.4°W
Report Text: KPTW 301214Z AUTO 00000KT 3SM BR CLR 04/03 A3003 RMK AO2 T00390033
Loading
Personal Weather Stations






























Interactive Weather Map
Tropical Storm Tracking
New forecast layout! Learn more

10-Day Weather Forecast

Advertisements
Track Severe Weather on mobile